createdAt,value
2023-03-12T00:02:13.952Z,97232.59
2023-03-12T00:04:40.976Z,97208.34
2023-03-12T00:07:09.049Z,97210.78
2023-03-12T00:09:37.763Z,97207.97
2023-03-12T00:12:06.259Z,97205.94
2023-03-12T00:14:33.698Z,97198.72
2023-03-12T00:17:00.808Z,97197.09
2023-03-12T00:19:27.868Z,97193.44
2023-03-12T00:21:54.995Z,97176.41
2023-03-12T00:24:22.125Z,97182.06
2023-03-12T00:26:49.129Z,97162.84
2023-03-12T00:29:16.168Z,97187.66
2023-03-12T00:31:43.284Z,97149.31
2023-03-12T00:34:10.906Z,97158.66
2023-03-12T00:36:38.175Z,97171.22
2023-03-12T00:39:05.166Z,97150.94
2023-03-12T00:41:32.238Z,97136.34
2023-03-12T00:43:59.318Z,97139.22
2023-03-12T00:46:26.441Z,97133.94
2023-03-12T00:48:53.451Z,97127.47
2023-03-12T00:51:20.827Z,97119.34
2023-03-12T00:53:48.122Z,97105.94
2023-03-12T00:56:15.694Z,97101.72
2023-03-12T00:58:43.608Z,97097.06
2023-03-12T01:01:11.382Z,97104.34
2023-03-12T01:03:39.162Z,97088.13
2023-03-12T01:06:06.470Z,97079.56
2023-03-12T01:08:34.021Z,97088.94
2023-03-12T01:11:01.197Z,97079.22
2023-03-12T01:13:28.919Z,97075.19
2023-03-12T01:15:56.092Z,97064.03
2023-03-12T01:18:23.528Z,97062.19
2023-03-12T01:20:50.931Z,97060.38
2023-03-12T01:23:17.964Z,97053.47
2023-03-12T01:25:45.048Z,97056.16
2023-03-12T01:28:12.056Z,97046.00
2023-03-12T01:30:39.292Z,97041.72
2023-03-12T01:33:06.262Z,97043.53
2023-03-12T01:35:37.813Z,97043.53
2023-03-12T01:38:06.939Z,97036.28
2023-03-12T01:40:35.996Z,97037.88
2023-03-12T01:43:26.280Z,97025.72
2023-03-12T01:46:03.631Z,97032.66
2023-03-12T01:48:40.169Z,97034.47
2023-03-12T01:51:10.698Z,97015.16
2023-03-12T01:53:38.662Z,97022.09
2023-03-12T01:56:06.753Z,97019.06
2023-03-12T01:58:38.166Z,97005.63
2023-03-12T02:01:06.024Z,96988.75
2023-03-12T02:03:35.167Z,96983.88
2023-03-12T02:06:04.805Z,96988.53
2023-03-12T02:08:31.758Z,96980.22
2023-03-12T02:10:58.726Z,96979.41
2023-03-12T02:13:26.043Z,96970.88
2023-03-12T02:15:53.201Z,96981.44
2023-03-12T02:18:21.645Z,96971.28
2023-03-12T02:21:20.249Z,96966.97
2023-03-12T02:23:59.389Z,96957.84
2023-03-12T02:26:30.016Z,96960.88
2023-03-12T02:29:00.670Z,96951.75
2023-03-12T02:31:35.166Z,96944.44
2023-03-12T02:34:02.342Z,96946.44
2023-03-12T02:36:29.574Z,96936.47
2023-03-12T02:38:57.114Z,96924.69
2023-03-12T02:41:32.310Z,96920.41
2023-03-12T02:44:08.157Z,96912.88
2023-03-12T02:46:57.595Z,96907.38
2023-03-12T02:49:28.532Z,96899.81
2023-03-12T02:51:56.574Z,96911.44
2023-03-12T02:54:24.429Z,96903.50
2023-03-12T02:56:52.294Z,96894.31
2023-03-12T02:59:21.984Z,96889.03
2023-03-12T03:01:57.955Z,96883.94
2023-03-12T03:04:25.852Z,96896.78
2023-03-12T03:06:53.014Z,96879.25
2023-03-12T03:09:22.488Z,96872.34
2023-03-12T03:11:50.869Z,96864.59
2023-03-12T03:14:18.752Z,96879.66
2023-03-12T03:16:49.001Z,96868.69
2023-03-12T03:19:16.294Z,96863.38
2023-03-12T03:21:43.974Z,96855.03
2023-03-12T03:24:11.474Z,96840.78
2023-03-12T03:26:38.670Z,96852.59
2023-03-12T03:29:05.742Z,96857.44
2023-03-12T03:31:32.878Z,96840.13
2023-03-12T03:34:00.005Z,96836.88
2023-03-12T03:36:27.341Z,96834.84
2023-03-12T03:39:01.342Z,96829.53
2023-03-12T03:41:33.071Z,96837.44
2023-03-12T03:44:00.465Z,96820.75
2023-03-12T03:46:30.053Z,96827.50
2023-03-12T03:49:04.110Z,96820.34
2023-03-12T03:51:33.187Z,96810.19
2023-03-12T03:54:05.333Z,96805.03
2023-03-12T03:56:32.675Z,96796.47
2023-03-12T03:59:02.125Z,96785.28
2023-03-12T04:01:31.560Z,96788.88
2023-03-12T04:04:00.480Z,96782.16
2023-03-12T04:06:29.945Z,96773.19
2023-03-12T04:08:58.464Z,96767.28
2023-03-12T04:11:26.793Z,96767.13
2023-03-12T04:13:55.520Z,96762.69
2023-03-12T04:16:25.855Z,96757.34
2023-03-12T04:18:54.737Z,96760.97
2023-03-12T04:21:23.030Z,96757.72
2023-03-12T04:23:51.359Z,96745.91
2023-03-12T04:26:23.497Z,96748.72
2023-03-12T04:28:50.611Z,96753.59
2023-03-12T04:31:17.986Z,96740.13
2023-03-12T04:33:50.194Z,96739.06
2023-03-12T04:36:18.610Z,96745.38
2023-03-12T04:38:48.465Z,96742.91
2023-03-12T04:41:18.436Z,96734.28
2023-03-12T04:43:53.341Z,96736.00
2023-03-12T04:46:22.207Z,96726.13
2023-03-12T04:48:49.406Z,96714.81
2023-03-12T04:51:17.311Z,96727.59
2023-03-12T04:53:44.539Z,96722.31
2023-03-12T04:56:13.478Z,96715.69
2023-03-12T04:58:41.825Z,96720.72
2023-03-12T05:01:24.420Z,96702.78
2023-03-12T05:03:52.389Z,96707.41
2023-03-12T05:06:19.970Z,96704.19
2023-03-12T05:08:48.083Z,96700.66
2023-03-12T05:11:16.245Z,96697.59
2023-03-12T05:13:43.722Z,96701.59
2023-03-12T05:16:12.244Z,96689.56
2023-03-12T05:18:39.357Z,96686.25
2023-03-12T05:21:09.170Z,96673.59
2023-03-12T05:23:36.911Z,96669.47
2023-03-12T05:26:04.066Z,96685.81
2023-03-12T05:28:31.053Z,96682.28
2023-03-12T05:31:01.924Z,96692.88
2023-03-12T05:33:30.647Z,96677.22
2023-03-12T05:36:00.873Z,96673.06
2023-03-12T05:38:29.356Z,96673.50
2023-03-12T05:40:59.328Z,96656.44
2023-03-12T05:43:29.772Z,96655.84
2023-03-12T05:46:02.184Z,96648.34
2023-03-12T05:48:30.307Z,96640.97
2023-03-12T05:50:58.095Z,96673.00
2023-03-12T05:53:25.437Z,96645.84
2023-03-12T05:55:53.776Z,96654.97
2023-03-12T05:58:20.999Z,96634.72
2023-03-12T06:00:48.436Z,96639.22
2023-03-12T06:03:15.935Z,96638.00
2023-03-12T06:05:44.637Z,96637.72
2023-03-12T06:08:11.855Z,96627.72
2023-03-12T06:10:39.763Z,96624.31
2023-03-12T06:13:08.836Z,96641.09
2023-03-12T06:15:36.068Z,96630.06
2023-03-12T06:18:05.470Z,96631.25
2023-03-12T06:20:35.820Z,96624.47
2023-03-12T06:23:03.021Z,96625.63
2023-03-12T06:25:32.342Z,96626.53
2023-03-12T06:27:59.491Z,96637.13
2023-03-12T06:30:27.746Z,96611.81
2023-03-12T06:32:55.283Z,96618.81
2023-03-12T06:35:22.393Z,96617.13
2023-03-12T06:37:49.481Z,96610.19
2023-03-12T06:40:16.642Z,96605.19
2023-03-12T06:42:43.584Z,96628.72
2023-03-12T06:45:11.001Z,96599.28
2023-03-12T06:47:38.016Z,96594.56
2023-03-12T06:50:05.612Z,96599.44
2023-03-12T06:52:33.246Z,96586.38
2023-03-12T06:55:00.309Z,96589.84
2023-03-12T06:57:27.335Z,96574.81
2023-03-12T06:59:54.278Z,96594.78
2023-03-12T07:02:21.345Z,96586.47
2023-03-12T07:04:48.432Z,96583.38
2023-03-12T07:07:17.139Z,96572.00
2023-03-12T07:09:44.284Z,96580.97
2023-03-12T07:12:11.399Z,96563.00
2023-03-12T07:14:38.368Z,96559.09
2023-03-12T07:17:05.588Z,96554.00
2023-03-12T07:19:32.641Z,96538.38
2023-03-12T07:21:59.791Z,96544.84
2023-03-12T07:24:26.799Z,96543.47
2023-03-12T07:26:53.758Z,96546.34
2023-03-12T07:29:20.778Z,96528.59
2023-03-12T07:31:47.865Z,96538.19
2023-03-12T07:34:15.275Z,96555.25
2023-03-12T07:36:42.478Z,96545.44
2023-03-12T07:39:09.588Z,96534.28
2023-03-12T07:41:37.585Z,96528.72
2023-03-12T07:44:05.593Z,96521.66
2023-03-12T07:46:32.975Z,96524.66
2023-03-12T07:49:00.023Z,96509.81
2023-03-12T07:51:27.481Z,96519.03
2023-03-12T07:53:54.455Z,96502.78
2023-03-12T07:56:21.635Z,96508.66
2023-03-12T07:58:48.888Z,96498.50
2023-03-12T08:01:16.129Z,96505.69
2023-03-12T08:03:43.529Z,96490.47
2023-03-12T08:06:11.014Z,96509.63
2023-03-12T08:08:41.854Z,96493.72
2023-03-12T08:11:09.623Z,96494.84
2023-03-12T08:13:36.690Z,96480.56
2023-03-12T08:16:03.870Z,96488.63
2023-03-12T08:18:30.951Z,96475.47
2023-03-12T08:20:57.965Z,96473.16
2023-03-12T08:23:25.216Z,96484.25
2023-03-12T08:25:52.691Z,96469.22
2023-03-12T08:28:21.393Z,96466.59
2023-03-12T08:30:54.275Z,96462.09
2023-03-12T08:33:22.553Z,96449.84
2023-03-12T08:35:49.992Z,96437.63
2023-03-12T08:38:17.513Z,96433.94
2023-03-12T08:40:45.023Z,96432.41
2023-03-12T08:43:12.034Z,96433.00
2023-03-12T08:45:39.210Z,96409.69
2023-03-12T08:48:07.366Z,96408.06
2023-03-12T08:50:34.529Z,96406.44
2023-03-12T08:53:01.692Z,96400.41
2023-03-12T08:55:28.741Z,96411.38
2023-03-12T08:57:56.573Z,96401.59
2023-03-12T09:00:25.229Z,96419.59
2023-03-12T09:02:54.154Z,96392.44
2023-03-12T09:05:21.372Z,96389.19
2023-03-12T09:07:50.135Z,96399.94
2023-03-12T09:10:17.790Z,96382.38
2023-03-12T09:12:45.339Z,96379.47
2023-03-12T09:15:12.429Z,96387.44
2023-03-12T09:17:40.088Z,96379.59
2023-03-12T09:20:08.999Z,96377.72
2023-03-12T09:22:37.399Z,96368.47
2023-03-12T09:25:05.779Z,96371.91
2023-03-12T09:27:39.943Z,96367.72
2023-03-12T09:30:08.616Z,96372.88
2023-03-12T09:32:35.690Z,96359.09
2023-03-12T09:35:03.343Z,96355.31
2023-03-12T09:37:32.478Z,96355.19
2023-03-12T09:40:00.197Z,96338.97
2023-03-12T09:42:50.472Z,96338.75
2023-03-12T09:45:22.825Z,96329.25
2023-03-12T09:47:53.457Z,96327.97
2023-03-12T09:50:26.320Z,96321.06
2023-03-12T09:53:05.258Z,96319.00
2023-03-12T09:55:41.128Z,96310.22
2023-03-12T09:58:22.684Z,96307.09
2023-03-12T10:00:49.710Z,96292.69
2023-03-12T10:03:54.964Z,96289.28
2023-03-12T10:06:25.061Z,96291.94
2023-03-12T10:09:07.059Z,96276.47
2023-03-12T10:11:57.761Z,96279.84
2023-03-12T10:14:52.029Z,96268.19
2023-03-12T10:17:21.954Z,96275.19
2023-03-12T10:19:57.789Z,96261.19
2023-03-12T10:23:12.194Z,96256.19
2023-03-12T10:25:57.383Z,96252.38
2023-03-12T10:28:49.319Z,96254.38
2023-03-12T10:31:21.841Z,96250.34
2023-03-12T10:33:56.170Z,96248.66
2023-03-12T10:36:28.813Z,96250.75
2023-03-12T10:38:56.135Z,96245.44
2023-03-12T10:41:33.425Z,96236.31
2023-03-12T10:44:07.852Z,96240.03
2023-03-12T10:46:37.879Z,96232.78
2023-03-12T10:49:24.127Z,96228.41
2023-03-12T10:52:06.341Z,96225.06
2023-03-12T10:54:33.306Z,96210.81
2023-03-12T10:57:01.812Z,96216.72
2023-03-12T10:59:37.491Z,96223.38
2023-03-12T11:02:24.437Z,96215.25
2023-03-12T11:04:52.705Z,96215.81
2023-03-12T11:07:28.132Z,96200.75
2023-03-12T11:10:07.381Z,96200.28
2023-03-12T11:12:39.964Z,96196.31
2023-03-12T11:15:19.018Z,96197.22
2023-03-12T11:17:46.417Z,96195.03
2023-03-12T11:20:22.452Z,96206.53
2023-03-12T11:22:51.496Z,96186.63
2023-03-12T11:25:28.648Z,96177.94
2023-03-12T11:27:59.901Z,96179.31
2023-03-12T11:30:36.862Z,96171.88
2023-03-12T11:33:04.400Z,96188.09
2023-03-12T11:36:03.924Z,96179.81
2023-03-12T11:39:00.583Z,96187.16
2023-03-12T11:41:51.292Z,96187.81
2023-03-12T11:44:33.357Z,96221.41
2023-03-12T11:47:16.828Z,96218.75
2023-03-12T11:50:17.865Z,96230.06
2023-03-12T11:53:12.181Z,96236.16
2023-03-12T11:55:55.151Z,96262.44
2023-03-12T11:58:59.583Z,96258.13
2023-03-12T12:01:26.640Z,96263.00
2023-03-12T12:04:13.471Z,96270.13
2023-03-12T12:06:57.964Z,96287.44
2023-03-12T12:09:32.410Z,96296.19
2023-03-12T12:12:10.721Z,96310.63
2023-03-12T12:15:06.781Z,96310.63
2023-03-12T12:17:39.880Z,96319.13
2023-03-12T12:20:29.093Z,96337.22
2023-03-12T12:23:02.236Z,96346.97
2023-03-12T12:25:52.825Z,96344.53
2023-03-12T12:28:54.274Z,96356.94
2023-03-12T12:31:36.513Z,96368.34
2023-03-12T12:34:30.423Z,96371.09
2023-03-12T12:37:13.117Z,96372.22
2023-03-12T12:39:47.035Z,96388.66
2023-03-12T12:42:22.076Z,96392.19
2023-03-12T12:44:52.660Z,96392.47
2023-03-12T12:47:30.292Z,96389.22
2023-03-12T12:49:59.984Z,96394.41
2023-03-12T12:52:27.659Z,96393.66
2023-03-12T12:55:20.266Z,96399.81
2023-03-12T12:57:58.143Z,96400.25
2023-03-12T13:00:36.464Z,96400.22
2023-03-12T13:03:04.469Z,96414.00
2023-03-12T13:05:37.524Z,96434.84
2023-03-12T13:08:08.809Z,96435.38
2023-03-12T13:10:35.788Z,96439.09
2023-03-12T13:13:21.170Z,96451.03
2023-03-12T13:15:48.515Z,96474.84
2023-03-12T13:18:22.220Z,96458.66
2023-03-12T13:20:52.014Z,96469.06
2023-03-12T13:23:24.788Z,96481.25
2023-03-12T13:26:20.559Z,96494.44
2023-03-12T13:28:56.724Z,96499.47
2023-03-12T13:31:29.823Z,96513.28
2023-03-12T13:33:59.110Z,96529.13
2023-03-12T13:36:28.845Z,96518.63
2023-03-12T13:39:06.609Z,96512.97
2023-03-12T13:41:41.093Z,96530.09
2023-03-12T13:44:23.279Z,96551.22
2023-03-12T13:47:25.145Z,96552.84
2023-03-12T13:50:00.177Z,96564.41
2023-03-12T13:52:41.220Z,96575.97
2023-03-12T13:55:14.602Z,96575.97
2023-03-12T13:57:45.566Z,96578.00
2023-03-12T14:00:18.677Z,96569.66
2023-03-12T14:02:52.140Z,96585.09
2023-03-12T14:05:20.560Z,96584.69
2023-03-12T14:07:59.856Z,96584.91
2023-03-12T14:10:36.907Z,96596.25
2023-03-12T14:13:39.877Z,96610.03
2023-03-12T14:16:46.048Z,96602.50
2023-03-12T14:19:15.068Z,96615.69
2023-03-12T14:21:44.426Z,96624.56
2023-03-12T14:24:40.694Z,96633.47
2023-03-12T14:27:15.497Z,96641.53
2023-03-12T14:29:45.583Z,96641.94
2023-03-12T14:32:25.637Z,96656.75
2023-03-12T14:35:31.280Z,96659.38
2023-03-12T14:38:01.351Z,96670.72
2023-03-12T14:40:49.517Z,96667.69
2023-03-12T14:43:25.363Z,96671.13
2023-03-12T14:45:56.700Z,96683.09
2023-03-12T14:48:29.058Z,96690.34
2023-03-12T14:50:57.753Z,96699.59
2023-03-12T14:53:29.673Z,96714.41
2023-03-12T14:56:07.063Z,96716.16
2023-03-12T14:58:36.859Z,96727.63
2023-03-12T15:01:07.204Z,96742.06
2023-03-12T15:03:43.636Z,96746.34
2023-03-12T15:06:47.237Z,96768.72
2023-03-12T15:09:26.055Z,96793.47
2023-03-12T15:11:56.783Z,96771.56
2023-03-12T15:14:26.244Z,96784.88
2023-03-12T15:16:53.890Z,96793.34
2023-03-12T15:19:26.649Z,96787.66
2023-03-12T15:21:54.122Z,96803.91
2023-03-12T15:24:21.633Z,96818.78
2023-03-12T15:26:48.770Z,96843.91
2023-03-12T15:29:26.941Z,96860.28
2023-03-12T15:32:00.853Z,96878.41
2023-03-12T15:34:33.279Z,96886.19
2023-03-12T15:37:21.256Z,96874.06
2023-03-12T15:39:51.646Z,96881.38
2023-03-12T15:42:24.215Z,96906.84
2023-03-12T15:45:00.106Z,96922.38
2023-03-12T15:47:29.308Z,96938.59
2023-03-12T15:49:57.704Z,96947.00
2023-03-12T15:52:36.096Z,96960.78
2023-03-12T15:55:14.658Z,96963.91
2023-03-12T15:57:45.698Z,96970.97
2023-03-12T16:00:12.700Z,96991.63
2023-03-12T16:02:47.216Z,97004.06
2023-03-12T16:05:14.432Z,97010.78
2023-03-12T16:07:41.436Z,97011.06
2023-03-12T16:10:14.061Z,96998.47
2023-03-12T16:12:44.554Z,97021.13
2023-03-12T16:15:25.840Z,97019.81
2023-03-12T16:17:52.842Z,97030.69
2023-03-12T16:20:20.171Z,97033.41
2023-03-12T16:22:47.293Z,97051.69
2023-03-12T16:25:14.377Z,97070.84
2023-03-12T16:27:49.722Z,97082.97
2023-03-12T16:30:22.975Z,97082.56
2023-03-12T16:32:50.274Z,97091.25
2023-03-12T16:35:19.249Z,97101.31
2023-03-12T16:37:47.237Z,97113.13
2023-03-12T16:40:24.035Z,97115.03
2023-03-12T16:43:02.705Z,97126.34
2023-03-12T16:45:30.994Z,97156.81
2023-03-12T16:48:03.578Z,97165.34
2023-03-12T16:50:31.084Z,97175.84
2023-03-12T16:52:58.990Z,97172.34
2023-03-12T16:55:29.008Z,97173.28
2023-03-12T16:57:59.337Z,97187.06
2023-03-12T17:00:30.500Z,97199.38
2023-03-12T17:02:59.115Z,97208.75
2023-03-12T17:05:28.487Z,97223.84
2023-03-12T17:07:58.357Z,97227.28
2023-03-12T17:10:26.062Z,97223.72
2023-03-12T17:12:54.021Z,97235.25
2023-03-12T17:15:23.828Z,97255.91
2023-03-12T17:17:51.006Z,97253.47
2023-03-12T17:20:21.073Z,97268.72
2023-03-12T17:22:48.333Z,97270.66
2023-03-12T17:25:29.155Z,97277.25
2023-03-12T17:27:57.439Z,97286.28
2023-03-12T17:30:26.171Z,97291.03
2023-03-12T17:32:54.442Z,97281.34
2023-03-12T17:35:21.536Z,97295.09
2023-03-12T17:37:48.663Z,97304.13
2023-03-12T17:40:16.152Z,97318.25
2023-03-12T17:42:43.296Z,97317.59
2023-03-12T17:45:11.017Z,97337.25
2023-03-12T17:47:38.963Z,97339.75
2023-03-12T17:50:07.874Z,97353.03
2023-03-12T17:52:35.120Z,97363.53
2023-03-12T17:55:03.467Z,97367.31
2023-03-12T17:57:30.903Z,97369.25
2023-03-12T17:59:58.064Z,97367.81
2023-03-12T18:02:25.166Z,97363.19
2023-03-12T18:04:52.249Z,97353.34
2023-03-12T18:07:19.331Z,97342.38
2023-03-12T18:09:46.311Z,97359.59
2023-03-12T18:12:13.357Z,97372.59
2023-03-12T18:14:40.324Z,97387.34
2023-03-12T18:17:07.402Z,97401.47
2023-03-12T18:19:35.627Z,97408.22
2023-03-12T18:22:02.872Z,97410.50
2023-03-12T18:24:30.204Z,97434.78
2023-03-12T18:26:59.332Z,97440.53
2023-03-12T18:29:26.822Z,97434.78
2023-03-12T18:31:53.990Z,97452.66
2023-03-12T18:34:21.161Z,97447.09
2023-03-12T18:36:48.257Z,97446.94
2023-03-12T18:39:15.340Z,97443.31
2023-03-12T18:41:42.447Z,97454.13
2023-03-12T18:44:09.485Z,97471.19
2023-03-12T18:46:36.616Z,97474.81
2023-03-12T18:49:08.307Z,97495.81
2023-03-12T18:51:35.928Z,97499.09
2023-03-12T18:54:03.090Z,97505.47
2023-03-12T18:56:30.192Z,97512.38
2023-03-12T18:58:57.207Z,97520.09
2023-03-12T19:01:24.513Z,97536.47
2023-03-12T19:03:52.322Z,97554.16
2023-03-12T19:06:19.394Z,97555.75
2023-03-12T19:08:46.428Z,97568.56
2023-03-12T19:11:15.838Z,97572.34
2023-03-12T19:13:43.534Z,97568.78
2023-03-12T19:16:12.900Z,97578.72
2023-03-12T19:18:40.150Z,97582.50
2023-03-12T19:21:08.523Z,97584.91
2023-03-12T19:23:36.009Z,97594.03
2023-03-12T19:26:03.770Z,97602.28
2023-03-12T19:28:31.342Z,97601.47
2023-03-12T19:31:07.030Z,97613.78
2023-03-12T19:33:34.424Z,97620.38
2023-03-12T19:36:02.007Z,97630.94
2023-03-12T19:38:29.416Z,97634.56
2023-03-12T19:40:58.217Z,97640.28
2023-03-12T19:43:26.028Z,97648.44
2023-03-12T19:45:54.811Z,97648.03
2023-03-12T19:48:22.832Z,97641.97
2023-03-12T19:50:51.608Z,97657.09
2023-03-12T19:53:19.825Z,97670.38
2023-03-12T19:55:48.511Z,97666.25
2023-03-12T19:58:16.648Z,97679.72
2023-03-12T20:00:43.841Z,97690.00
2023-03-12T20:03:10.990Z,97692.13
2023-03-12T20:05:38.492Z,97691.97
2023-03-12T20:08:05.688Z,97693.31
2023-03-12T20:10:32.926Z,97704.00
2023-03-12T20:13:00.008Z,97701.91
2023-03-12T20:15:27.014Z,97706.31
2023-03-12T20:17:54.928Z,97709.47
2023-03-12T20:20:21.891Z,97707.91
2023-03-12T20:22:49.073Z,97720.03
2023-03-12T20:25:16.128Z,97719.16
2023-03-12T20:27:43.805Z,97722.75
2023-03-12T20:30:11.403Z,97727.84
2023-03-12T20:32:38.483Z,97731.66
2023-03-12T20:35:06.117Z,97726.19
2023-03-12T20:37:33.082Z,97740.28
2023-03-12T20:40:00.138Z,97743.28
2023-03-12T20:42:27.302Z,97737.81
2023-03-12T20:44:54.334Z,97753.25
2023-03-12T20:47:22.504Z,97755.56
2023-03-12T20:49:49.512Z,97762.91
2023-03-12T20:52:16.598Z,97763.72
2023-03-12T20:54:43.698Z,97764.78
2023-03-12T20:57:10.764Z,97770.00
2023-03-12T20:59:37.780Z,97782.41
2023-03-12T21:02:04.835Z,97782.69
2023-03-12T21:04:31.930Z,97794.72
2023-03-12T21:06:59.013Z,97796.09
2023-03-12T21:09:26.069Z,97793.25
2023-03-12T21:11:53.179Z,97796.47
2023-03-12T21:14:20.229Z,97795.56
2023-03-12T21:16:47.361Z,97799.03
2023-03-12T21:19:14.558Z,97816.47
2023-03-12T21:21:41.571Z,97811.38
2023-03-12T21:24:08.603Z,97807.63
2023-03-12T21:26:35.768Z,97826.16
2023-03-12T21:29:03.238Z,97826.44
2023-03-12T21:31:30.633Z,97837.47
2023-03-12T21:33:58.197Z,97838.47
2023-03-12T21:36:26.252Z,97837.25
2023-03-12T21:38:53.302Z,97840.34
2023-03-12T21:41:20.940Z,97835.84
2023-03-12T21:43:48.319Z,97852.91
2023-03-12T21:46:24.754Z,97863.09
2023-03-12T21:48:52.065Z,97852.81
2023-03-12T21:51:19.710Z,97864.41
2023-03-12T21:53:46.750Z,97870.44
2023-03-12T21:56:13.742Z,97870.75
2023-03-12T21:58:41.163Z,97885.19
2023-03-12T22:01:17.352Z,97885.38
2023-03-12T22:03:45.921Z,97889.94
2023-03-12T22:06:14.752Z,97890.91
2023-03-12T22:08:43.016Z,97904.81
2023-03-12T22:11:10.909Z,97903.84
2023-03-12T22:13:38.236Z,97904.41
2023-03-12T22:16:08.359Z,97921.09
2023-03-12T22:18:41.141Z,97924.78
2023-03-12T22:21:09.170Z,97930.72
2023-03-12T22:23:36.956Z,97928.38
2023-03-12T22:26:06.259Z,97931.41
2023-03-12T22:28:34.115Z,97926.03
2023-03-12T22:31:03.848Z,97944.38
2023-03-12T22:33:31.212Z,97948.78
2023-03-12T22:35:58.676Z,97957.03
2023-03-12T22:38:26.113Z,97962.25
2023-03-12T22:40:55.610Z,97969.31
2023-03-12T22:43:24.983Z,97965.84
2023-03-12T22:45:55.165Z,97979.38
2023-03-12T22:48:22.153Z,97974.41
2023-03-12T22:50:55.627Z,97974.97
2023-03-12T22:53:23.288Z,97976.06
2023-03-12T22:55:58.805Z,97983.34
2023-03-12T22:58:26.628Z,97995.06
2023-03-12T23:01:23.545Z,98005.13
2023-03-12T23:03:51.007Z,98001.69
2023-03-12T23:06:32.760Z,98002.38
2023-03-12T23:08:59.962Z,98016.56
2023-03-12T23:11:28.225Z,98015.72
2023-03-12T23:13:55.786Z,98018.88
2023-03-12T23:16:25.593Z,98029.22
2023-03-12T23:18:52.924Z,98026.03
2023-03-12T23:21:22.301Z,98026.72
2023-03-12T23:23:50.816Z,98025.63
2023-03-12T23:26:20.943Z,98032.91
2023-03-12T23:28:48.511Z,98031.00
2023-03-12T23:31:16.475Z,98036.91
2023-03-12T23:33:43.963Z,98040.38
2023-03-12T23:36:16.785Z,98044.50
2023-03-12T23:38:44.889Z,98048.59
2023-03-12T23:41:15.093Z,98050.69
2023-03-12T23:43:42.187Z,98066.91
2023-03-12T23:46:10.708Z,98075.47
2023-03-12T23:48:39.049Z,98069.25
2023-03-12T23:51:08.944Z,98066.50
2023-03-12T23:53:37.326Z,98063.09
2023-03-12T23:56:07.055Z,98074.91
2023-03-12T23:58:34.201Z,98079.75
